createdAt,value
2018-09-01T00:00:59.990Z,13.60
2018-09-01T00:03:28.229Z,13.50
2018-09-01T00:05:56.605Z,13.50
2018-09-01T00:08:24.891Z,13.50
2018-09-01T00:10:53.140Z,13.40
2018-09-01T00:13:21.630Z,13.40
2018-09-01T00:18:24.571Z,13.30
2018-09-01T00:20:52.897Z,13.30
2018-09-01T00:23:21.176Z,13.20
2018-09-01T00:25:49.444Z,13.20
2018-09-01T00:28:17.721Z,13.10
2018-09-01T00:30:46.034Z,13.10
2018-09-01T00:33:14.272Z,13.00
2018-09-01T00:35:42.549Z,13.00
2018-09-01T00:38:16.192Z,12.90
2018-09-01T00:40:44.497Z,12.90
2018-09-01T00:43:12.907Z,12.90
2018-09-01T00:45:41.222Z,12.80
2018-09-01T00:48:09.468Z,12.70
2018-09-01T00:50:37.700Z,12.70
2018-09-01T00:53:06.140Z,12.70
2018-09-01T00:55:34.428Z,12.60
2018-09-01T00:58:03.045Z,12.60
2018-09-01T01:00:31.321Z,12.60
2018-09-01T01:02:59.602Z,12.60
2018-09-01T01:05:27.877Z,12.60
2018-09-01T01:07:56.118Z,12.60
2018-09-01T01:10:24.394Z,12.50
2018-09-01T01:12:52.645Z,12.50
2018-09-01T01:15:21.049Z,12.50
2018-09-01T01:17:49.312Z,12.50
2018-09-01T01:20:17.589Z,12.50
2018-09-01T01:22:45.885Z,12.40
2018-09-01T01:25:14.152Z,12.40
2018-09-01T01:27:42.449Z,12.40
2018-09-01T01:30:10.693Z,12.30
2018-09-01T01:32:38.965Z,12.30
2018-09-01T01:35:07.250Z,12.30
2018-09-01T01:37:36.479Z,12.20
2018-09-01T01:40:05.634Z,12.20
2018-09-01T01:42:35.049Z,12.20
2018-09-01T01:45:03.428Z,12.20
2018-09-01T01:47:31.685Z,12.20
2018-09-01T01:50:00.188Z,12.20
2018-09-01T01:52:28.573Z,12.10
2018-09-01T01:54:56.925Z,12.10
2018-09-01T01:57:25.209Z,12.10
2018-09-01T01:59:53.479Z,12.00
2018-09-01T02:02:21.772Z,12.00
2018-09-01T02:04:52.364Z,11.90
2018-09-01T02:07:20.596Z,11.90
2018-09-01T02:09:48.868Z,11.90
2018-09-01T02:12:17.145Z,11.90
2018-09-01T02:14:45.460Z,11.90
2018-09-01T02:17:13.752Z,11.90
2018-09-01T02:19:42.009Z,11.90
2018-09-01T02:22:10.237Z,11.80
2018-09-01T02:24:38.528Z,11.90
2018-09-01T02:27:06.789Z,11.80
2018-09-01T02:29:35.045Z,11.80
2018-09-01T02:32:03.461Z,11.80
2018-09-01T02:34:31.737Z,11.80
2018-09-01T02:37:00.006Z,11.80
2018-09-01T02:39:28.782Z,11.70
2018-09-01T02:41:57.077Z,11.70
2018-09-01T02:44:25.343Z,11.70
2018-09-01T02:46:53.704Z,11.60
2018-09-01T02:49:21.970Z,11.60
2018-09-01T02:51:50.256Z,11.60
2018-09-01T02:54:18.601Z,11.60
2018-09-01T02:56:46.837Z,11.60
2018-09-01T02:59:15.134Z,11.60
2018-09-01T03:01:43.412Z,11.60
2018-09-01T03:04:11.773Z,11.50
2018-09-01T03:06:49.224Z,11.50
2018-09-01T03:09:17.539Z,11.50
2018-09-01T03:11:45.797Z,11.40
2018-09-01T03:14:14.080Z,11.40
2018-09-01T03:16:42.330Z,11.40
2018-09-01T03:19:10.561Z,11.40
2018-09-01T03:21:38.857Z,11.50
2018-09-01T03:24:07.165Z,11.50
2018-09-01T03:26:35.492Z,11.50
2018-09-01T03:29:03.737Z,11.50
2018-09-01T03:31:32.028Z,11.50
2018-09-01T03:34:00.294Z,11.50
2018-09-01T03:36:28.601Z,11.50
2018-09-01T03:38:56.866Z,11.50
2018-09-01T03:41:25.133Z,11.50
2018-09-01T03:43:53.408Z,11.50
2018-09-01T03:46:21.705Z,11.50
2018-09-01T03:48:50.038Z,11.50
2018-09-01T03:51:18.336Z,11.50
2018-09-01T03:53:46.617Z,11.60
2018-09-01T03:56:14.881Z,11.60
2018-09-01T03:58:43.164Z,11.60
2018-09-01T04:01:11.390Z,11.70
2018-09-01T04:03:39.725Z,11.70
2018-09-01T04:06:07.993Z,11.80
2018-09-01T04:08:36.232Z,11.80
2018-09-01T04:11:04.552Z,11.90
2018-09-01T04:13:32.900Z,11.90
2018-09-01T04:16:01.165Z,12.00
2018-09-01T04:18:29.492Z,12.00
2018-09-01T04:20:57.764Z,12.10
2018-09-01T04:23:26.024Z,12.10
2018-09-01T04:25:54.301Z,12.20
2018-09-01T04:28:22.614Z,12.20
2018-09-01T04:30:50.934Z,12.20
2018-09-01T04:33:19.183Z,12.20
2018-09-01T04:35:47.650Z,12.30
2018-09-01T04:38:15.942Z,12.30
2018-09-01T04:40:44.629Z,12.30
2018-09-01T04:43:12.953Z,12.40
2018-09-01T04:45:41.785Z,12.40
2018-09-01T04:48:10.568Z,12.40
2018-09-01T04:50:38.846Z,12.50
2018-09-01T04:53:07.326Z,12.50
2018-09-01T04:55:35.641Z,12.50
2018-09-01T04:58:03.968Z,12.50
2018-09-01T05:00:32.218Z,12.60
2018-09-01T05:03:00.505Z,12.60
2018-09-01T05:05:28.793Z,12.60
2018-09-01T05:07:57.049Z,12.60
2018-09-01T05:10:25.346Z,12.70
2018-09-01T05:12:53.620Z,12.70
2018-09-01T05:15:21.904Z,12.70
2018-09-01T05:17:50.173Z,12.70
2018-09-01T05:20:18.453Z,12.70
2018-09-01T05:22:46.768Z,12.70
2018-09-01T05:25:15.045Z,12.70
2018-09-01T05:27:43.453Z,12.80
2018-09-01T05:30:11.741Z,12.80
2018-09-01T05:32:40.028Z,12.90
2018-09-01T05:35:08.301Z,12.90
2018-09-01T05:37:36.621Z,12.90
2018-09-01T05:40:05.317Z,12.90
2018-09-01T05:42:33.780Z,12.90
2018-09-01T05:45:02.061Z,13.00
2018-09-01T05:47:30.493Z,13.00
2018-09-01T05:49:58.770Z,13.00
2018-09-01T05:52:27.072Z,13.00
2018-09-01T05:54:55.441Z,13.10
2018-09-01T05:57:23.765Z,13.10
2018-09-01T05:59:52.107Z,13.10
2018-09-01T06:02:20.520Z,13.20
2018-09-01T06:04:48.782Z,13.20
2018-09-01T06:07:17.061Z,13.30
2018-09-01T06:09:45.703Z,13.40
2018-09-01T06:12:13.949Z,13.40
2018-09-01T06:14:42.214Z,13.50
2018-09-01T06:17:10.595Z,13.50
2018-09-01T06:19:38.838Z,13.60
2018-09-01T06:22:07.116Z,13.60
2018-09-01T06:24:35.402Z,13.70
2018-09-01T06:27:07.778Z,13.80
2018-09-01T06:29:36.016Z,13.80
2018-09-01T06:32:06.194Z,13.80
2018-09-01T06:34:34.429Z,13.90
2018-09-01T06:37:02.723Z,13.90
2018-09-01T06:39:30.973Z,13.90
2018-09-01T06:41:59.257Z,14.00
2018-09-01T06:44:27.613Z,14.00
2018-09-01T06:46:55.864Z,14.00
2018-09-01T06:49:24.104Z,14.10
2018-09-01T06:51:52.427Z,14.10
2018-09-01T06:54:20.690Z,14.20
2018-09-01T06:56:48.993Z,14.20
2018-09-01T06:59:17.232Z,14.20
2018-09-01T07:01:45.489Z,14.20
2018-09-01T07:04:13.893Z,14.20
2018-09-01T07:06:42.205Z,14.20
2018-09-01T07:09:10.440Z,14.30
2018-09-01T07:11:38.749Z,14.30
2018-09-01T07:14:07.061Z,14.40
2018-09-01T07:16:35.848Z,14.40
2018-09-01T07:19:04.124Z,14.40
2018-09-01T07:21:32.469Z,14.50
2018-09-01T07:24:00.848Z,14.50
2018-09-01T07:26:29.091Z,14.50
2018-09-01T07:28:57.355Z,14.60
2018-09-01T07:31:25.967Z,14.70
2018-09-01T07:33:53.920Z,14.80
2018-09-01T07:36:22.162Z,14.90
2018-09-01T07:38:50.444Z,15.10
2018-09-01T07:41:18.765Z,15.20
2018-09-01T07:43:47.061Z,15.30
2018-09-01T07:46:15.341Z,15.50
2018-09-01T07:48:43.612Z,15.70
2018-09-01T07:51:11.884Z,16.00
2018-09-01T07:53:40.205Z,16.10
2018-09-01T07:56:08.614Z,16.30
2018-09-01T07:58:36.806Z,16.50
2018-09-01T08:01:05.185Z,16.90
2018-09-01T08:03:33.481Z,17.20
2018-09-01T08:06:01.732Z,17.80
2018-09-01T08:08:30.041Z,18.30
2018-09-01T08:10:58.268Z,18.70
2018-09-01T08:13:26.505Z,19.10
2018-09-01T08:15:54.816Z,19.40
2018-09-01T08:18:23.084Z,19.80
2018-09-01T08:20:51.369Z,20.10
2018-09-01T08:23:19.684Z,20.10
2018-09-01T08:25:47.899Z,20.20
2018-09-01T08:28:16.245Z,20.40
2018-09-01T08:30:44.592Z,20.70
2018-09-01T08:33:12.854Z,21.00
2018-09-01T08:35:41.262Z,21.40
2018-09-01T08:38:09.534Z,21.60
2018-09-01T08:40:37.784Z,21.90
2018-09-01T08:43:06.093Z,22.10
2018-09-01T08:45:34.403Z,22.40
2018-09-01T08:48:02.832Z,22.80
2018-09-01T08:50:31.095Z,23.00
2018-09-01T08:52:59.377Z,23.20
2018-09-01T08:55:27.616Z,23.40
2018-09-01T08:57:55.877Z,23.50
2018-09-01T09:00:24.109Z,23.70
2018-09-01T09:02:52.334Z,24.00
2018-09-01T09:05:20.595Z,24.20
2018-09-01T09:07:48.809Z,24.10
2018-09-01T09:10:17.056Z,24.20
2018-09-01T09:12:45.333Z,24.40
2018-09-01T09:15:13.549Z,24.60
2018-09-01T09:17:41.809Z,24.80
2018-09-01T09:20:10.061Z,24.70
2018-09-01T09:22:38.338Z,24.40
2018-09-01T09:25:06.561Z,24.10
2018-09-01T09:27:34.816Z,23.90
2018-09-01T09:30:03.089Z,23.80
2018-09-01T09:32:31.341Z,23.80
2018-09-01T09:34:59.716Z,23.70
2018-09-01T09:37:27.950Z,23.80
2018-09-01T09:39:56.214Z,24.00
2018-09-01T09:42:24.544Z,24.20
2018-09-01T09:44:52.827Z,24.40
2018-09-01T09:47:21.058Z,24.40
2018-09-01T09:49:49.320Z,24.10
2018-09-01T09:52:17.564Z,24.00
2018-09-01T09:54:45.822Z,23.90
2018-09-01T09:57:14.045Z,23.60
2018-09-01T09:59:42.252Z,23.30
2018-09-01T10:02:10.529Z,23.00
2018-09-01T10:04:38.736Z,22.80
2018-09-01T10:07:06.945Z,22.40
2018-09-01T10:09:35.336Z,22.20
2018-09-01T10:12:03.682Z,21.90
2018-09-01T10:14:32.005Z,21.70
2018-09-01T10:17:00.288Z,21.50
2018-09-01T10:19:28.523Z,21.30
2018-09-01T10:21:56.841Z,21.10
2018-09-01T10:24:25.197Z,21.00
2018-09-01T10:26:53.711Z,20.90
2018-09-01T10:29:21.848Z,21.00
2018-09-01T10:31:50.285Z,21.10
2018-09-01T10:34:18.769Z,21.10
2018-09-01T10:36:48.902Z,21.10
2018-09-01T10:39:20.595Z,21.00
2018-09-01T10:41:48.922Z,21.30
2018-09-01T10:44:18.065Z,22.00
2018-09-01T10:46:48.199Z,22.60
2018-09-01T10:49:17.692Z,23.10
2018-09-01T10:51:46.644Z,23.70
2018-09-01T10:54:15.382Z,24.20
2018-09-01T10:56:44.771Z,24.80
2018-09-01T10:59:13.136Z,25.60
2018-09-01T11:01:41.525Z,26.20
2018-09-01T11:04:09.803Z,26.50
2018-09-01T11:06:38.056Z,26.30
2018-09-01T11:09:08.351Z,25.80
2018-09-01T11:11:36.589Z,25.30
2018-09-01T11:14:04.857Z,25.10
2018-09-01T11:16:33.132Z,25.30
2018-09-01T11:19:01.484Z,25.80
2018-09-01T11:21:29.740Z,26.30
2018-09-01T11:23:58.036Z,26.80
2018-09-01T11:26:26.320Z,27.30
2018-09-01T11:28:54.617Z,27.70
2018-09-01T11:31:22.924Z,27.70
2018-09-01T11:33:51.205Z,27.20
2018-09-01T11:36:19.708Z,26.60
2018-09-01T11:38:47.945Z,26.10
2018-09-01T11:41:16.209Z,25.60
2018-09-01T11:43:44.531Z,25.20
2018-09-01T11:46:12.996Z,24.90
2018-09-01T11:48:41.327Z,24.80
2018-09-01T11:51:09.591Z,25.20
2018-09-01T11:53:37.935Z,25.80
2018-09-01T11:56:06.168Z,26.40
2018-09-01T11:58:34.477Z,27.00
2018-09-01T12:01:02.777Z,27.40
2018-09-01T12:03:31.026Z,27.30
2018-09-01T12:05:59.297Z,27.00
2018-09-01T12:08:27.662Z,26.70
2018-09-01T12:10:56.173Z,26.50
2018-09-01T12:13:24.464Z,26.50
2018-09-01T12:15:52.755Z,26.70
2018-09-01T12:18:20.957Z,27.00
2018-09-01T12:20:49.502Z,27.40
2018-09-01T12:23:17.716Z,27.40
2018-09-01T12:25:46.206Z,27.20
2018-09-01T12:28:14.666Z,26.70
2018-09-01T12:30:42.832Z,26.20
2018-09-01T12:33:11.220Z,25.70
2018-09-01T12:35:39.490Z,25.70
2018-09-01T12:38:07.766Z,26.20
2018-09-01T12:40:35.977Z,26.90
2018-09-01T12:43:04.226Z,27.70
2018-09-01T12:45:32.494Z,28.40
2018-09-01T12:48:00.749Z,28.90
2018-09-01T12:50:29.018Z,29.40
2018-09-01T12:52:57.282Z,29.90
2018-09-01T12:55:25.493Z,30.30
2018-09-01T12:57:53.768Z,30.60
2018-09-01T13:00:22.004Z,30.90
2018-09-01T13:02:50.256Z,30.70
2018-09-01T13:05:18.496Z,30.30
2018-09-01T13:07:46.970Z,30.40
2018-09-01T13:10:15.285Z,30.50
2018-09-01T13:12:43.754Z,30.70
2018-09-01T13:15:12.001Z,30.90
2018-09-01T13:17:40.336Z,30.60
2018-09-01T13:20:08.596Z,30.40
2018-09-01T13:22:36.976Z,30.30
2018-09-01T13:25:05.300Z,29.90
2018-09-01T13:27:33.518Z,29.70
2018-09-01T13:30:01.792Z,30.00
2018-09-01T13:32:30.051Z,30.10
2018-09-01T13:34:58.427Z,29.80
2018-09-01T13:37:26.697Z,29.20
2018-09-01T13:39:54.976Z,28.60
2018-09-01T13:42:23.248Z,28.40
2018-09-01T13:44:51.516Z,28.70
2018-09-01T13:47:19.937Z,29.10
2018-09-01T13:49:48.198Z,29.60
2018-09-01T13:52:16.448Z,30.00
2018-09-01T13:54:44.752Z,30.10
2018-09-01T13:57:13.140Z,30.20
2018-09-01T13:59:41.309Z,30.00
2018-09-01T14:02:09.665Z,29.90
2018-09-01T14:04:38.096Z,29.80
2018-09-01T14:07:06.461Z,29.40
2018-09-01T14:09:34.826Z,29.10
2018-09-01T14:12:03.088Z,28.80
2018-09-01T14:14:31.415Z,28.30
2018-09-01T14:16:59.593Z,27.70
2018-09-01T14:19:27.865Z,27.10
2018-09-01T14:21:56.201Z,26.60
2018-09-01T14:24:24.472Z,26.20
2018-09-01T14:26:52.816Z,25.80
2018-09-01T14:29:21.132Z,25.40
2018-09-01T14:31:49.436Z,25.10
2018-09-01T14:34:17.809Z,24.80
2018-09-01T14:36:45.993Z,24.60
2018-09-01T14:39:14.251Z,24.40
2018-09-01T14:41:42.732Z,24.10
2018-09-01T14:44:11.005Z,23.90
2018-09-01T14:46:39.313Z,23.80
2018-09-01T14:49:07.527Z,23.70
2018-09-01T14:51:35.757Z,23.60
2018-09-01T14:54:03.988Z,23.40
2018-09-01T14:56:32.299Z,23.30
2018-09-01T14:59:00.548Z,23.10
2018-09-01T15:01:28.850Z,23.00
2018-09-01T15:03:57.208Z,22.90
2018-09-01T15:06:25.451Z,22.70
2018-09-01T15:08:53.676Z,22.60
2018-09-01T15:11:21.969Z,22.60
2018-09-01T15:13:50.278Z,22.40
2018-09-01T15:16:24.745Z,22.40
2018-09-01T15:18:55.825Z,22.30
2018-09-01T15:21:24.173Z,22.30
2018-09-01T15:23:52.420Z,22.30
2018-09-01T15:26:20.687Z,22.30
2018-09-01T15:28:48.984Z,22.30
2018-09-01T15:31:18.009Z,22.30
2018-09-01T15:33:46.729Z,22.20
2018-09-01T15:36:15.000Z,22.10
2018-09-01T15:38:43.323Z,22.10
2018-09-01T15:41:11.725Z,22.00
2018-09-01T15:43:39.980Z,21.90
2018-09-01T15:46:08.191Z,21.80
2018-09-01T15:48:36.457Z,21.60
2018-09-01T15:51:04.817Z,21.50
2018-09-01T15:53:33.217Z,21.30
2018-09-01T15:56:01.465Z,21.20
2018-09-01T15:58:29.748Z,21.10
2018-09-01T16:00:57.989Z,21.00
2018-09-01T16:03:26.238Z,20.90
2018-09-01T16:05:54.465Z,20.80
2018-09-01T16:08:22.721Z,20.70
2018-09-01T16:10:50.949Z,20.70
2018-09-01T16:13:19.171Z,20.60
2018-09-01T16:15:47.430Z,20.60
2018-09-01T16:18:15.656Z,20.60
2018-09-01T16:20:43.964Z,20.60
2018-09-01T16:23:12.232Z,20.60
2018-09-01T16:25:40.589Z,20.60
2018-09-01T16:28:08.889Z,20.60
2018-09-01T16:30:37.159Z,20.60
2018-09-01T16:33:05.624Z,20.60
2018-09-01T16:35:33.885Z,20.60
2018-09-01T16:38:02.159Z,20.60
2018-09-01T16:40:30.469Z,20.50
2018-09-01T16:42:58.726Z,20.50
2018-09-01T16:45:26.991Z,20.40
2018-09-01T16:47:55.204Z,20.40
2018-09-01T16:50:23.440Z,20.40
2018-09-01T16:52:51.733Z,20.30
2018-09-01T16:55:20.180Z,20.30
2018-09-01T16:57:48.386Z,20.30
2018-09-01T17:00:16.641Z,20.20
2018-09-01T17:02:44.993Z,20.20
2018-09-01T17:05:13.232Z,20.10
2018-09-01T17:07:41.505Z,20.20
2018-09-01T17:10:09.947Z,20.10
2018-09-01T17:12:38.172Z,20.10
2018-09-01T17:15:07.191Z,20.10
2018-09-01T17:17:35.624Z,20.00
2018-09-01T17:20:03.921Z,20.00
2018-09-01T17:22:32.259Z,19.90
2018-09-01T17:25:00.505Z,19.80
2018-09-01T17:27:28.732Z,19.80
2018-09-01T17:29:57.013Z,19.70
2018-09-01T17:32:25.260Z,19.60
2018-09-01T17:34:53.600Z,19.50
2018-09-01T17:37:21.842Z,19.40
2018-09-01T17:39:50.222Z,19.30
2018-09-01T17:42:18.669Z,19.20
2018-09-01T17:44:46.888Z,19.20
2018-09-01T17:47:15.197Z,19.10
2018-09-01T17:49:43.448Z,18.90
2018-09-01T17:52:12.025Z,18.80
2018-09-01T17:54:40.598Z,18.70
2018-09-01T17:57:09.213Z,18.60
2018-09-01T17:59:37.433Z,18.40
2018-09-01T18:02:05.820Z,18.30
2018-09-01T18:04:51.109Z,18.20
2018-09-01T18:07:19.421Z,18.10
2018-09-01T18:09:47.974Z,17.90
2018-09-01T18:12:16.277Z,17.80
2018-09-01T18:14:44.567Z,17.70
2018-09-01T18:17:12.894Z,17.60
2018-09-01T18:19:41.213Z,17.50
2018-09-01T18:22:09.552Z,17.40
2018-09-01T18:24:37.942Z,17.30
2018-09-01T18:27:06.332Z,17.20
2018-09-01T18:29:34.725Z,17.10
2018-09-01T18:32:03.045Z,17.00
2018-09-01T18:34:31.388Z,16.90
2018-09-01T18:36:59.728Z,16.80
2018-09-01T18:39:28.080Z,16.70
2018-09-01T18:41:56.464Z,16.60
2018-09-01T18:44:24.900Z,16.50
2018-09-01T18:46:53.213Z,16.40
2018-09-01T18:49:21.533Z,16.30
2018-09-01T18:51:49.995Z,16.20
2018-09-01T18:54:18.437Z,16.10
2018-09-01T18:56:46.868Z,16.10
2018-09-01T18:59:15.259Z,16.00
2018-09-01T19:01:43.668Z,16.00
2018-09-01T19:04:12.081Z,15.90
2018-09-01T19:06:40.453Z,15.80
2018-09-01T19:09:08.777Z,15.80
2018-09-01T19:11:37.596Z,15.70
2018-09-01T19:14:06.246Z,15.70
2018-09-01T19:16:34.542Z,15.60
2018-09-01T19:19:02.983Z,15.60
2018-09-01T19:21:31.368Z,15.50
2018-09-01T19:23:59.677Z,15.50
2018-09-01T19:26:27.995Z,15.40
2018-09-01T19:28:56.344Z,15.40
2018-09-01T19:31:24.760Z,15.30
2018-09-01T19:33:53.044Z,15.30
2018-09-01T19:36:22.239Z,15.20
2018-09-01T19:38:50.621Z,15.20
2018-09-01T19:41:18.940Z,15.10
2018-09-01T19:43:47.270Z,15.10
2018-09-01T19:46:15.672Z,15.10
2018-09-01T19:48:43.968Z,15.00
2018-09-01T19:51:12.314Z,14.90
2018-09-01T19:53:40.693Z,14.90
2018-09-01T19:56:09.052Z,14.80
2018-09-01T19:58:37.493Z,14.80
2018-09-01T20:01:05.912Z,14.70
2018-09-01T20:03:34.293Z,14.70
2018-09-01T20:06:02.835Z,14.60
2018-09-01T20:08:31.228Z,14.60
2018-09-01T20:10:59.592Z,14.60
2018-09-01T20:13:27.987Z,14.50
2018-09-01T20:15:56.355Z,14.50
2018-09-01T20:18:24.717Z,14.40
2018-09-01T20:20:53.021Z,14.40
2018-09-01T20:23:21.413Z,14.30
2018-09-01T20:25:49.746Z,14.30
2018-09-01T20:28:18.133Z,14.20
2018-09-01T20:30:46.526Z,14.20
2018-09-01T20:33:14.912Z,14.10
2018-09-01T20:35:48.713Z,14.10
2018-09-01T20:38:17.122Z,14.00
2018-09-01T20:40:45.672Z,14.00
2018-09-01T20:43:14.041Z,13.90
2018-09-01T20:45:42.412Z,13.80
2018-09-01T20:48:10.773Z,13.80
2018-09-01T20:50:39.131Z,13.80
2018-09-01T20:53:07.732Z,13.70
2018-09-01T20:55:36.156Z,13.70
2018-09-01T20:58:04.540Z,13.60
2018-09-01T21:00:32.862Z,13.60
2018-09-01T21:03:01.232Z,13.50
2018-09-01T21:05:29.575Z,13.50
2018-09-01T21:07:58.028Z,13.50
2018-09-01T21:10:26.426Z,13.50
2018-09-01T21:12:54.700Z,13.40
2018-09-01T21:15:23.056Z,13.40
2018-09-01T21:17:51.363Z,13.30
2018-09-01T21:20:19.701Z,13.20
2018-09-01T21:22:48.052Z,13.20
2018-09-01T21:25:16.332Z,13.10
2018-09-01T21:27:44.765Z,13.00
2018-09-01T21:30:13.056Z,13.00
2018-09-01T21:32:41.348Z,12.90
2018-09-01T21:35:09.680Z,12.90
2018-09-01T21:37:37.991Z,12.90
2018-09-01T21:40:06.414Z,12.80
2018-09-01T21:42:34.739Z,12.80
2018-09-01T21:45:03.317Z,12.80
2018-09-01T21:47:31.673Z,12.70
2018-09-01T21:50:00.068Z,12.70
2018-09-01T21:52:28.401Z,12.70
2018-09-01T21:54:56.845Z,12.60
2018-09-01T21:57:25.188Z,12.60
2018-09-01T21:59:53.747Z,12.50
2018-09-01T22:02:23.600Z,12.50
2018-09-01T22:04:57.484Z,12.40
2018-09-01T22:07:25.836Z,12.40
2018-09-01T22:09:54.910Z,12.30
2018-09-01T22:12:23.445Z,12.30
2018-09-01T22:14:53.021Z,12.30
2018-09-01T22:17:21.772Z,12.20
2018-09-01T22:19:50.496Z,12.20
2018-09-01T22:22:18.853Z,12.20
2018-09-01T22:24:47.181Z,12.20
2018-09-01T22:27:15.557Z,12.10
2018-09-01T22:29:43.890Z,12.10
2018-09-01T22:32:12.217Z,12.10
2018-09-01T22:34:40.686Z,12.10
2018-09-01T22:37:09.165Z,12.10
2018-09-01T22:39:37.544Z,12.00
2018-09-01T22:42:06.062Z,11.90
2018-09-01T22:44:34.445Z,11.90
2018-09-01T22:47:05.460Z,11.80
2018-09-01T22:49:33.833Z,11.80
2018-09-01T22:52:02.220Z,11.90
2018-09-01T22:54:30.548Z,11.80
2018-09-01T22:56:58.973Z,11.80
2018-09-01T22:59:27.352Z,11.80
2018-09-01T23:01:55.730Z,11.70
2018-09-01T23:04:24.119Z,11.70
2018-09-01T23:06:52.468Z,11.70
2018-09-01T23:09:20.887Z,11.70
2018-09-01T23:11:50.068Z,11.60
2018-09-01T23:14:18.463Z,11.60
2018-09-01T23:16:46.839Z,11.60
2018-09-01T23:19:15.153Z,11.60
2018-09-01T23:21:43.495Z,11.50
2018-09-01T23:24:11.801Z,11.50
2018-09-01T23:26:40.416Z,11.50
2018-09-01T23:29:08.867Z,11.40
2018-09-01T23:31:37.299Z,11.40
2018-09-01T23:34:05.680Z,11.30
2018-09-01T23:36:34.056Z,11.30
2018-09-01T23:39:02.437Z,11.30
2018-09-01T23:41:30.840Z,11.30
2018-09-01T23:43:59.140Z,11.20
2018-09-01T23:46:27.416Z,11.20
2018-09-01T23:48:55.765Z,11.20
2018-09-01T23:51:24.124Z,11.10
2018-09-01T23:53:52.629Z,11.10
2018-09-01T23:56:21.000Z,11.10
2018-09-01T23:58:49.363Z,11.10
